sensor_id;sensor_type;location;lat;lon;timestamp;pressure;altitude;pressure_sealevel;temperature;humidity
22104;BME280;11218;48.886;9.426;2023-08-01T00:01:03;97028.34;;;18.97;82.88
22104;BME280;11218;48.886;9.426;2023-08-01T00:03:31;97019.03;;;18.98;83.19
22104;BME280;11218;48.886;9.426;2023-08-01T00:06:00;97024.97;;;19.00;83.02
22104;BME280;11218;48.886;9.426;2023-08-01T00:08:28;97024.34;;;18.94;83.09
22104;BME280;11218;48.886;9.426;2023-08-01T00:10:56;97020.34;;;18.92;83.03
22104;BME280;11218;48.886;9.426;2023-08-01T00:13:25;97014.56;;;18.93;83.13
22104;BME280;11218;48.886;9.426;2023-08-01T00:15:53;97007.84;;;18.91;83.56
22104;BME280;11218;48.886;9.426;2023-08-01T00:18:33;97006.56;;;18.88;83.54
22104;BME280;11218;48.886;9.426;2023-08-01T00:21:01;97006.09;;;18.86;83.79
22104;BME280;11218;48.886;9.426;2023-08-01T00:23:29;96996.97;;;18.82;84.09
22104;BME280;11218;48.886;9.426;2023-08-01T00:25:57;96989.94;;;18.81;84.14
22104;BME280;11218;48.886;9.426;2023-08-01T00:28:26;96989.78;;;18.78;84.36
22104;BME280;11218;48.886;9.426;2023-08-01T00:31:01;96994.44;;;18.77;84.38
22104;BME280;11218;48.886;9.426;2023-08-01T00:33:30;96998.75;;;18.78;84.78
22104;BME280;11218;48.886;9.426;2023-08-01T00:35:58;96991.25;;;18.75;85.33
22104;BME280;11218;48.886;9.426;2023-08-01T00:38:26;96975.06;;;18.70;85.63
22104;BME280;11218;48.886;9.426;2023-08-01T00:40:54;96962.56;;;18.69;85.54
22104;BME280;11218;48.886;9.426;2023-08-01T00:43:22;96955.84;;;18.66;85.82
22104;BME280;11218;48.886;9.426;2023-08-01T00:45:54;96953.59;;;18.68;85.54
22104;BME280;11218;48.886;9.426;2023-08-01T00:48:23;96959.22;;;18.63;85.49
22104;BME280;11218;48.886;9.426;2023-08-01T00:50:51;96961.31;;;18.58;86.10
22104;BME280;11218;48.886;9.426;2023-08-01T00:53:20;96935.06;;;18.53;86.83
22104;BME280;11218;48.886;9.426;2023-08-01T00:55:48;96935.66;;;18.59;85.88
22104;BME280;11218;48.886;9.426;2023-08-01T00:58:18;96921.28;;;18.50;86.83
22104;BME280;11218;48.886;9.426;2023-08-01T01:00:47;96910.25;;;18.46;87.11
22104;BME280;11218;48.886;9.426;2023-08-01T01:03:17;96908.19;;;18.43;87.03
22104;BME280;11218;48.886;9.426;2023-08-01T01:05:52;96892.34;;;18.36;87.91
22104;BME280;11218;48.886;9.426;2023-08-01T01:08:21;96892.34;;;18.36;87.77
22104;BME280;11218;48.886;9.426;2023-08-01T01:10:49;96890.75;;;18.35;87.53
22104;BME280;11218;48.886;9.426;2023-08-01T01:13:17;96878.09;;;18.31;88.01
22104;BME280;11218;48.886;9.426;2023-08-01T01:15:45;96869.75;;;18.36;87.29
22104;BME280;11218;48.886;9.426;2023-08-01T01:18:13;96870.22;;;18.38;86.56
22104;BME280;11218;48.886;9.426;2023-08-01T01:20:43;96857.84;;;18.41;86.00
22104;BME280;11218;48.886;9.426;2023-08-01T01:23:11;96852.53;;;18.44;85.65
22104;BME280;11218;48.886;9.426;2023-08-01T01:25:40;96860.06;;;18.47;85.92
22104;BME280;11218;48.886;9.426;2023-08-01T01:28:10;96861.66;;;18.48;86.64
22104;BME280;11218;48.886;9.426;2023-08-01T01:30:39;96851.75;;;18.44;86.42
22104;BME280;11218;48.886;9.426;2023-08-01T01:33:08;96848.50;;;18.50;86.66
22104;BME280;11218;48.886;9.426;2023-08-01T01:35:37;96852.34;;;18.49;85.53
22104;BME280;11218;48.886;9.426;2023-08-01T01:38:07;96858.59;;;18.50;85.97
22104;BME280;11218;48.886;9.426;2023-08-01T01:40:36;96862.59;;;18.52;85.22
22104;BME280;11218;48.886;9.426;2023-08-01T01:43:04;96863.25;;;18.49;85.35
22104;BME280;11218;48.886;9.426;2023-08-01T01:45:32;96863.25;;;18.49;85.59
22104;BME280;11218;48.886;9.426;2023-08-01T01:48:00;96858.94;;;18.48;85.87
22104;BME280;11218;48.886;9.426;2023-08-01T01:50:28;96861.50;;;18.45;86.67
22104;BME280;11218;48.886;9.426;2023-08-01T01:52:57;96864.38;;;18.48;86.33
22104;BME280;11218;48.886;9.426;2023-08-01T01:55:26;96864.72;;;18.47;86.15
22104;BME280;11218;48.886;9.426;2023-08-01T01:57:54;96856.41;;;18.43;87.14
22104;BME280;11218;48.886;9.426;2023-08-01T02:00:22;96835.25;;;18.40;87.50
22104;BME280;11218;48.886;9.426;2023-08-01T02:02:50;96834.78;;;18.38;87.62
22104;BME280;11218;48.886;9.426;2023-08-01T02:05:19;96820.22;;;18.34;87.80
22104;BME280;11218;48.886;9.426;2023-08-01T02:07:47;96817.69;;;18.29;88.17
22104;BME280;11218;48.886;9.426;2023-08-01T02:10:15;96812.91;;;18.26;88.40
22104;BME280;11218;48.886;9.426;2023-08-01T02:12:44;96817.22;;;18.27;88.37
22104;BME280;11218;48.886;9.426;2023-08-01T02:15:12;96814.03;;;18.25;88.58
22104;BME280;11218;48.886;9.426;2023-08-01T02:17:40;96817.22;;;18.27;88.51
22104;BME280;11218;48.886;9.426;2023-08-01T02:20:09;96812.91;;;18.26;88.56
22104;BME280;11218;48.886;9.426;2023-08-01T02:22:38;96822.53;;;18.23;88.88
22104;BME280;11218;48.886;9.426;2023-08-01T02:25:06;96820.28;;;18.25;88.67
22104;BME280;11218;48.886;9.426;2023-08-01T02:27:34;96809.69;;;18.24;88.60
22104;BME280;11218;48.886;9.426;2023-08-01T02:30:05;96815.63;;;18.26;88.16
22104;BME280;11218;48.886;9.426;2023-08-01T02:32:34;96810.50;;;18.24;88.00
22104;BME280;11218;48.886;9.426;2023-08-01T02:35:02;96807.78;;;18.24;88.90
22104;BME280;11218;48.886;9.426;2023-08-01T02:37:31;96795.28;;;18.23;89.40
22104;BME280;11218;48.886;9.426;2023-08-01T02:39:59;96808.09;;;18.23;89.50
22104;BME280;11218;48.886;9.426;2023-08-01T02:42:27;96811.16;;;18.21;89.75
22104;BME280;11218;48.886;9.426;2023-08-01T02:44:55;96811.63;;;18.23;89.56
22104;BME280;11218;48.886;9.426;2023-08-01T02:47:25;96806.66;;;18.25;89.36
22104;BME280;11218;48.886;9.426;2023-08-01T02:49:53;96809.69;;;18.24;89.50
22104;BME280;11218;48.886;9.426;2023-08-01T02:52:21;96806.50;;;18.22;89.61
22104;BME280;11218;48.886;9.426;2023-08-01T02:54:49;96801.06;;;18.22;89.81
22104;BME280;11218;48.886;9.426;2023-08-01T02:57:18;96805.38;;;18.23;89.28
22104;BME280;11218;48.886;9.426;2023-08-01T02:59:46;96788.56;;;18.21;89.10
22104;BME280;11218;48.886;9.426;2023-08-01T03:02:14;96779.94;;;18.19;89.48
22104;BME280;11218;48.886;9.426;2023-08-01T03:04:43;96778.66;;;18.16;89.94
22104;BME280;11218;48.886;9.426;2023-08-01T03:07:13;96781.72;;;18.15;90.09
22104;BME280;11218;48.886;9.426;2023-08-01T03:09:41;96783.31;;;18.16;89.76
22104;BME280;11218;48.886;9.426;2023-08-01T03:12:10;96770.50;;;18.16;89.63
22104;BME280;11218;48.886;9.426;2023-08-01T03:14:38;96774.00;;;18.17;89.04
22104;BME280;11218;48.886;9.426;2023-08-01T03:17:08;96775.28;;;18.19;88.60
22104;BME280;11218;48.886;9.426;2023-08-01T03:19:36;96770.63;;;18.20;89.06
22104;BME280;11218;48.886;9.426;2023-08-01T03:22:07;96772.56;;;18.19;89.42
22104;BME280;11218;48.886;9.426;2023-08-01T03:24:35;96756.81;;;18.25;88.60
22104;BME280;11218;48.886;9.426;2023-08-01T03:27:04;96767.56;;;18.21;88.98
22104;BME280;11218;48.886;9.426;2023-08-01T03:29:32;96752.16;;;18.25;88.99
22104;BME280;11218;48.886;9.426;2023-08-01T03:32:00;96749.91;;;18.27;88.88
22104;BME280;11218;48.886;9.426;2023-08-01T03:34:28;96758.53;;;18.29;87.83
22104;BME280;11218;48.886;9.426;2023-08-01T03:36:57;96761.41;;;18.33;87.83
22104;BME280;11218;48.886;9.426;2023-08-01T03:39:27;96761.88;;;18.35;87.71
22104;BME280;11218;48.886;9.426;2023-08-01T03:41:55;96764.41;;;18.40;87.46
22104;BME280;11218;48.886;9.426;2023-08-01T03:44:23;96754.63;;;18.39;87.73
22104;BME280;11218;48.886;9.426;2023-08-01T03:46:51;96754.56;;;18.48;86.50
22104;BME280;11218;48.886;9.426;2023-08-01T03:49:20;96747.53;;;18.47;86.59
22104;BME280;11218;48.886;9.426;2023-08-01T03:51:48;96748.13;;;18.52;86.00
22104;BME280;11218;48.886;9.426;2023-08-01T03:54:16;96752.44;;;18.53;85.87
22104;BME280;11218;48.886;9.426;2023-08-01T03:56:46;96751.19;;;18.51;85.84
22104;BME280;11218;48.886;9.426;2023-08-01T03:59:15;96752.91;;;18.55;84.92
22104;BME280;11218;48.886;9.426;2023-08-01T04:01:43;96741.13;;;18.63;84.30
22104;BME280;11218;48.886;9.426;2023-08-01T04:04:11;96761.00;;;18.64;84.09
22104;BME280;11218;48.886;9.426;2023-08-01T04:06:40;96747.53;;;18.67;83.81
22104;BME280;11218;48.886;9.426;2023-08-01T04:09:08;96730.81;;;18.69;83.89
22104;BME280;11218;48.886;9.426;2023-08-01T04:11:37;96719.84;;;18.78;84.14
22104;BME280;11218;48.886;9.426;2023-08-01T04:14:06;96717.91;;;18.78;82.63
22104;BME280;11218;48.886;9.426;2023-08-01T04:16:35;96714.84;;;18.80;82.59
22104;BME280;11218;48.886;9.426;2023-08-01T04:19:03;96702.69;;;18.77;82.91
22104;BME280;11218;48.886;9.426;2023-08-01T04:21:32;96684.66;;;18.85;82.24
22104;BME280;11218;48.886;9.426;2023-08-01T04:24:00;96657.16;;;18.90;81.10
22104;BME280;11218;48.886;9.426;2023-08-01T04:26:28;96642.41;;;18.91;81.83
22104;BME280;11218;48.886;9.426;2023-08-01T04:28:56;96628.53;;;18.96;81.47
22104;BME280;11218;48.886;9.426;2023-08-01T04:31:25;96622.63;;;18.94;81.28
22104;BME280;11218;48.886;9.426;2023-08-01T04:33:54;96632.53;;;18.98;81.76
22104;BME280;11218;48.886;9.426;2023-08-01T04:36:22;96640.13;;;18.93;82.22
22104;BME280;11218;48.886;9.426;2023-08-01T04:38:50;96646.50;;;18.97;82.34
22104;BME280;11218;48.886;9.426;2023-08-01T04:41:18;96656.16;;;18.94;81.97
22104;BME280;11218;48.886;9.426;2023-08-01T04:43:46;96653.09;;;18.96;81.92
22104;BME280;11218;48.886;9.426;2023-08-01T04:46:14;96637.84;;;18.95;82.05
22104;BME280;11218;48.886;9.426;2023-08-01T04:48:44;96628.66;;;18.99;80.51
22104;BME280;11218;48.886;9.426;2023-08-01T04:51:12;96623.31;;;19.03;81.09
22104;BME280;11218;48.886;9.426;2023-08-01T04:53:40;96624.00;;;19.00;80.82
22104;BME280;11218;48.886;9.426;2023-08-01T04:56:08;96614.44;;;18.94;81.50
22104;BME280;11218;48.886;9.426;2023-08-01T04:58:37;96623.44;;;18.94;81.74
22104;BME280;11218;48.886;9.426;2023-08-01T05:01:05;96647.28;;;18.97;81.16
22104;BME280;11218;48.886;9.426;2023-08-01T05:03:33;96664.25;;;19.03;81.00
22104;BME280;11218;48.886;9.426;2023-08-01T05:06:03;96677.63;;;18.96;81.75
22104;BME280;11218;48.886;9.426;2023-08-01T05:08:31;96682.41;;;18.99;81.44
22104;BME280;11218;48.886;9.426;2023-08-01T05:10:59;96652.88;;;19.01;80.88
22104;BME280;11218;48.886;9.426;2023-08-01T05:13:27;96679.13;;;19.06;81.15
22104;BME280;11218;48.886;9.426;2023-08-01T05:15:56;96670.03;;;19.01;82.06
22104;BME280;11218;48.886;9.426;2023-08-01T05:18:24;96685.84;;;19.08;81.59
22104;BME280;11218;48.886;9.426;2023-08-01T05:20:52;96707.09;;;19.02;82.20
22104;BME280;11218;48.886;9.426;2023-08-01T05:23:22;96695.72;;;19.00;82.18
22104;BME280;11218;48.886;9.426;2023-08-01T05:25:50;96706.25;;;18.90;83.14
22104;BME280;11218;48.886;9.426;2023-08-01T05:28:19;96677.25;;;18.85;83.81
22104;BME280;11218;48.886;9.426;2023-08-01T05:30:47;96673.03;;;18.76;84.32
22104;BME280;11218;48.886;9.426;2023-08-01T05:33:15;96669.03;;;18.73;84.68
22104;BME280;11218;48.886;9.426;2023-08-01T05:35:43;96664.59;;;18.68;85.39
22104;BME280;11218;48.886;9.426;2023-08-01T05:38:11;96674.59;;;18.64;85.55
22104;BME280;11218;48.886;9.426;2023-08-01T05:40:41;96670.94;;;18.60;86.21
22104;BME280;11218;48.886;9.426;2023-08-01T05:43:09;96671.25;;;18.59;86.17
22104;BME280;11218;48.886;9.426;2023-08-01T05:45:37;96676.59;;;18.55;86.04
22104;BME280;11218;48.886;9.426;2023-08-01T05:48:05;96678.53;;;18.55;86.58
22104;BME280;11218;48.886;9.426;2023-08-01T05:50:33;96682.03;;;18.55;86.89
22104;BME280;11218;48.886;9.426;2023-08-01T05:53:01;96687.03;;;18.53;86.91
22104;BME280;11218;48.886;9.426;2023-08-01T05:55:29;96681.13;;;18.51;87.04
22104;BME280;11218;48.886;9.426;2023-08-01T05:57:59;96678.38;;;18.51;86.97
22104;BME280;11218;48.886;9.426;2023-08-01T06:00:28;96683.72;;;18.48;87.34
22104;BME280;11218;48.886;9.426;2023-08-01T06:02:57;96674.75;;;18.47;88.25
22104;BME280;11218;48.886;9.426;2023-08-01T06:05:27;96674.59;;;18.44;88.35
22104;BME280;11218;48.886;9.426;2023-08-01T06:07:55;96678.78;;;18.41;88.66
22104;BME280;11218;48.886;9.426;2023-08-01T06:10:23;96692.44;;;18.41;88.82
22104;BME280;11218;48.886;9.426;2023-08-01T06:12:52;96674.94;;;18.42;88.11
22104;BME280;11218;48.886;9.426;2023-08-01T06:15:21;96674.59;;;18.44;88.47
22104;BME280;11218;48.886;9.426;2023-08-01T06:17:50;96672.13;;;18.51;87.81
22104;BME280;11218;48.886;9.426;2023-08-01T06:20:18;96686.91;;;18.50;87.56
22104;BME280;11218;48.886;9.426;2023-08-01T06:22:46;96672.13;;;18.51;87.66
22104;BME280;11218;48.886;9.426;2023-08-01T06:25:14;96671.94;;;18.56;87.12
22104;BME280;11218;48.886;9.426;2023-08-01T06:27:42;96675.00;;;18.54;87.17
22104;BME280;11218;48.886;9.426;2023-08-01T06:30:11;96669.66;;;18.58;86.97
22104;BME280;11218;48.886;9.426;2023-08-01T06:32:41;96681.84;;;18.60;86.87
22104;BME280;11218;48.886;9.426;2023-08-01T06:35:09;96697.69;;;18.58;86.98
22104;BME280;11218;48.886;9.426;2023-08-01T06:37:37;96708.75;;;18.62;85.54
22104;BME280;11218;48.886;9.426;2023-08-01T06:40:06;96736.06;;;18.74;84.02
22104;BME280;11218;48.886;9.426;2023-08-01T06:42:35;96746.66;;;18.76;83.50
22104;BME280;11218;48.886;9.426;2023-08-01T06:45:05;96742.19;;;18.71;83.34
22104;BME280;11218;48.886;9.426;2023-08-01T06:47:33;96754.03;;;18.54;84.28
22104;BME280;11218;48.886;9.426;2023-08-01T06:50:04;96739.47;;;18.50;84.15
22104;BME280;11218;48.886;9.426;2023-08-01T06:52:32;96740.22;;;18.38;85.19
22104;BME280;11218;48.886;9.426;2023-08-01T06:55:00;96740.28;;;18.30;85.86
22104;BME280;11218;48.886;9.426;2023-08-01T06:57:28;96751.09;;;18.18;87.42
22104;BME280;11218;48.886;9.426;2023-08-01T06:59:57;96760.84;;;18.19;87.73
22104;BME280;11218;48.886;9.426;2023-08-01T07:02:25;96749.56;;;18.08;88.67
22104;BME280;11218;48.886;9.426;2023-08-01T07:04:54;96725.94;;;17.91;89.27
22104;BME280;11218;48.886;9.426;2023-08-01T07:07:24;96734.75;;;17.88;90.21
22104;BME280;11218;48.886;9.426;2023-08-01T07:09:52;96725.22;;;17.82;90.39
22104;BME280;11218;48.886;9.426;2023-08-01T07:12:20;96723.72;;;17.85;90.64
22104;BME280;11218;48.886;9.426;2023-08-01T07:14:48;96715.97;;;17.75;91.26
22104;BME280;11218;48.886;9.426;2023-08-01T07:17:17;96712.59;;;17.78;91.38
22104;BME280;11218;48.886;9.426;2023-08-01T07:19:45;96715.31;;;17.78;92.07
22104;BME280;11218;48.886;9.426;2023-08-01T07:22:13;96699.78;;;17.78;92.28
22104;BME280;11218;48.886;9.426;2023-08-01T07:24:42;96690.28;;;17.84;92.45
22104;BME280;11218;48.886;9.426;2023-08-01T07:27:10;96683.13;;;17.80;92.91
22104;BME280;11218;48.886;9.426;2023-08-01T07:29:39;96673.13;;;17.84;92.42
22104;BME280;11218;48.886;9.426;2023-08-01T07:32:07;96705.38;;;17.82;91.44
22104;BME280;11218;48.886;9.426;2023-08-01T07:34:35;96715.25;;;17.86;90.88
22104;BME280;11218;48.886;9.426;2023-08-01T07:37:03;96728.66;;;17.91;90.23
22104;BME280;11218;48.886;9.426;2023-08-01T07:39:32;96756.06;;;17.86;90.70
22104;BME280;11218;48.886;9.426;2023-08-01T07:42:03;96727.47;;;17.80;90.61
22104;BME280;11218;48.886;9.426;2023-08-01T07:44:31;96721.94;;;17.68;91.61
22104;BME280;11218;48.886;9.426;2023-08-01T07:47:00;96736.34;;;17.68;91.70
22104;BME280;11218;48.886;9.426;2023-08-01T07:49:28;96727.84;;;17.70;91.31
22104;BME280;11218;48.886;9.426;2023-08-01T07:51:56;96734.09;;;17.62;91.83
22104;BME280;11218;48.886;9.426;2023-08-01T07:54:24;96725.47;;;17.60;92.75
22104;BME280;11218;48.886;9.426;2023-08-01T07:56:52;96724.53;;;17.56;92.78
22104;BME280;11218;48.886;9.426;2023-08-01T07:59:22;96725.03;;;17.49;93.77
22104;BME280;11218;48.886;9.426;2023-08-01T08:01:50;96715.13;;;17.45;93.18
22104;BME280;11218;48.886;9.426;2023-08-01T08:04:19;96723.13;;;17.41;93.36
22104;BME280;11218;48.886;9.426;2023-08-01T08:06:47;96722.97;;;17.46;93.23
22104;BME280;11218;48.886;9.426;2023-08-01T08:09:16;96726.94;;;17.49;92.98
22104;BME280;11218;48.886;9.426;2023-08-01T08:11:44;96732.72;;;17.47;93.17
22104;BME280;11218;48.886;9.426;2023-08-01T08:14:12;96727.94;;;17.44;94.03
22104;BME280;11218;48.886;9.426;2023-08-01T08:16:42;96717.50;;;17.46;94.73
22104;BME280;11218;48.886;9.426;2023-08-01T08:19:11;96708.38;;;17.51;94.27
22104;BME280;11218;48.886;9.426;2023-08-01T08:21:39;96712.69;;;17.52;94.84
22104;BME280;11218;48.886;9.426;2023-08-01T08:24:08;96705.97;;;17.49;95.25
22104;BME280;11218;48.886;9.426;2023-08-01T08:26:36;96718.59;;;17.54;95.01
22104;BME280;11218;48.886;9.426;2023-08-01T08:29:07;96712.03;;;17.55;94.77
22104;BME280;11218;48.886;9.426;2023-08-01T08:31:35;96719.88;;;17.56;95.11
22104;BME280;11218;48.886;9.426;2023-08-01T08:34:04;96729.50;;;17.54;95.76
22104;BME280;11218;48.886;9.426;2023-08-01T08:36:33;96722.13;;;17.54;96.11
22104;BME280;11218;48.886;9.426;2023-08-01T08:39:01;96715.38;;;17.60;96.15
22104;BME280;11218;48.886;9.426;2023-08-01T08:41:35;96712.66;;;17.60;96.21
22104;BME280;11218;48.886;9.426;2023-08-01T08:44:07;96718.56;;;17.62;97.01
22104;BME280;11218;48.886;9.426;2023-08-01T08:46:41;96718.75;;;17.66;97.33
22104;BME280;11218;48.886;9.426;2023-08-01T08:49:11;96716.78;;;17.75;96.66
22104;BME280;11218;48.886;9.426;2023-08-01T08:51:43;96715.56;;;17.85;96.87
22104;BME280;11218;48.886;9.426;2023-08-01T08:54:13;96704.81;;;17.88;96.94
22104;BME280;11218;48.886;9.426;2023-08-01T08:56:42;96706.22;;;17.94;97.10
22104;BME280;11218;48.886;9.426;2023-08-01T08:59:10;96699.91;;;18.02;96.20
22104;BME280;11218;48.886;9.426;2023-08-01T09:01:39;96708.38;;;18.10;96.94
22104;BME280;11218;48.886;9.426;2023-08-01T09:04:08;96709.56;;;18.21;96.14
22104;BME280;11218;48.886;9.426;2023-08-01T09:06:45;96712.09;;;18.26;94.71
22104;BME280;11218;48.886;9.426;2023-08-01T09:09:17;96712.75;;;18.23;94.65
22104;BME280;11218;48.886;9.426;2023-08-01T09:11:46;96705.53;;;18.27;94.15
22104;BME280;11218;48.886;9.426;2023-08-01T09:14:16;96697.22;;;18.23;93.22
22104;BME280;11218;48.886;9.426;2023-08-01T09:16:45;96709.38;;;18.26;93.51
22104;BME280;11218;48.886;9.426;2023-08-01T09:19:17;96709.25;;;18.22;93.45
22104;BME280;11218;48.886;9.426;2023-08-01T09:21:47;96710.97;;;18.27;93.41
22104;BME280;11218;48.886;9.426;2023-08-01T09:24:16;96720.47;;;18.21;93.85
22104;BME280;11218;48.886;9.426;2023-08-01T09:26:45;96721.25;;;18.21;94.16
22104;BME280;11218;48.886;9.426;2023-08-01T09:29:16;96725.91;;;18.21;94.58
22104;BME280;11218;48.886;9.426;2023-08-01T09:31:44;96720.31;;;18.17;95.17
22104;BME280;11218;48.886;9.426;2023-08-01T09:34:20;96721.78;;;18.15;96.35
22104;BME280;11218;48.886;9.426;2023-08-01T09:36:50;96721.00;;;18.14;95.56
22104;BME280;11218;48.886;9.426;2023-08-01T09:39:20;96720.06;;;18.10;96.31
22104;BME280;11218;48.886;9.426;2023-08-01T09:41:55;96720.00;;;18.19;96.21
22104;BME280;11218;48.886;9.426;2023-08-01T09:44:25;96724.13;;;18.25;96.61
22104;BME280;11218;48.886;9.426;2023-08-01T09:46:58;96724.84;;;18.34;97.08
22104;BME280;11218;48.886;9.426;2023-08-01T09:49:27;96724.31;;;18.41;96.83
22104;BME280;11218;48.886;9.426;2023-08-01T09:51:58;96723.13;;;18.50;95.09
22104;BME280;11218;48.886;9.426;2023-08-01T09:54:26;96726.19;;;18.49;95.23
22104;BME280;11218;48.886;9.426;2023-08-01T09:56:55;96739.34;;;18.47;95.30
22104;BME280;11218;48.886;9.426;2023-08-01T09:59:24;96745.13;;;18.45;95.72
22104;BME280;11218;48.886;9.426;2023-08-01T10:01:54;96748.72;;;18.37;96.42
22104;BME280;11218;48.886;9.426;2023-08-01T10:04:24;96743.59;;;18.35;96.80
22104;BME280;11218;48.886;9.426;2023-08-01T10:06:59;96750.78;;;18.40;96.84
22104;BME280;11218;48.886;9.426;2023-08-01T10:09:28;96746.25;;;18.44;96.35
22104;BME280;11218;48.886;9.426;2023-08-01T10:11:58;96737.88;;;18.49;96.85
22104;BME280;11218;48.886;9.426;2023-08-01T10:14:27;96734.63;;;18.56;96.81
22104;BME280;11218;48.886;9.426;2023-08-01T10:16:56;96752.22;;;18.58;96.97
22104;BME280;11218;48.886;9.426;2023-08-01T10:19:24;96758.03;;;18.57;97.12
22104;BME280;11218;48.886;9.426;2023-08-01T10:21:54;96746.91;;;18.62;97.42
22104;BME280;11218;48.886;9.426;2023-08-01T10:24:24;96749.13;;;18.68;97.21
22104;BME280;11218;48.886;9.426;2023-08-01T10:26:53;96750.72;;;18.69;97.26
22104;BME280;11218;48.886;9.426;2023-08-01T10:29:22;96751.56;;;18.82;96.40
22104;BME280;11218;48.886;9.426;2023-08-01T10:31:54;96753.63;;;18.85;95.83
22104;BME280;11218;48.886;9.426;2023-08-01T10:34:22;96763.41;;;18.86;96.10
22104;BME280;11218;48.886;9.426;2023-08-01T10:36:54;96767.50;;;18.92;95.15
22104;BME280;11218;48.886;9.426;2023-08-01T10:39:25;96771.84;;;18.93;95.00
22104;BME280;11218;48.886;9.426;2023-08-01T10:41:57;96761.38;;;18.95;94.68
22104;BME280;11218;48.886;9.426;2023-08-01T10:44:27;96764.50;;;19.06;92.04
22104;BME280;11218;48.886;9.426;2023-08-01T10:46:59;96764.63;;;19.10;92.10
22104;BME280;11218;48.886;9.426;2023-08-01T10:49:35;96767.50;;;19.25;87.51
22104;BME280;11218;48.886;9.426;2023-08-01T10:52:15;96769.56;;;19.28;83.78
22104;BME280;11218;48.886;9.426;2023-08-01T10:54:46;96765.38;;;19.43;85.85
22104;BME280;11218;48.886;9.426;2023-08-01T10:57:17;96768.84;;;19.64;83.08
22104;BME280;11218;48.886;9.426;2023-08-01T10:59:46;96757.81;;;19.85;83.07
22104;BME280;11218;48.886;9.426;2023-08-01T11:02:19;96762.47;;;20.09;78.69
22104;BME280;11218;48.886;9.426;2023-08-01T11:04:55;96784.66;;;20.20;77.16
22104;BME280;11218;48.886;9.426;2023-08-01T11:07:25;96767.09;;;20.33;78.23
22104;BME280;11218;48.886;9.426;2023-08-01T11:10:07;96769.03;;;20.57;78.13
22104;BME280;11218;48.886;9.426;2023-08-01T11:12:36;96764.75;;;20.72;74.85
22104;BME280;11218;48.886;9.426;2023-08-01T11:15:07;96774.34;;;20.93;75.02
22104;BME280;11218;48.886;9.426;2023-08-01T11:17:36;96775.66;;;21.12;71.18
22104;BME280;11218;48.886;9.426;2023-08-01T11:20:06;96769.69;;;21.22;71.47
22104;BME280;11218;48.886;9.426;2023-08-01T11:22:35;96772.56;;;21.41;71.08
22104;BME280;11218;48.886;9.426;2023-08-01T11:25:05;96776.63;;;21.63;71.27
22104;BME280;11218;48.886;9.426;2023-08-01T11:27:34;96774.69;;;21.79;67.16
22104;BME280;11218;48.886;9.426;2023-08-01T11:30:03;96792.53;;;21.89;66.51
22104;BME280;11218;48.886;9.426;2023-08-01T11:32:36;96788.66;;;21.90;66.93
22104;BME280;11218;48.886;9.426;2023-08-01T11:35:05;96791.91;;;21.80;63.89
22104;BME280;11218;48.886;9.426;2023-08-01T11:37:35;96778.75;;;21.85;63.92
22104;BME280;11218;48.886;9.426;2023-08-01T11:40:08;96789.38;;;22.03;64.15
22104;BME280;11218;48.886;9.426;2023-08-01T11:42:39;96783.97;;;22.22;62.44
22104;BME280;11218;48.886;9.426;2023-08-01T11:45:08;96796.38;;;22.35;62.11
22104;BME280;11218;48.886;9.426;2023-08-01T11:47:36;96783.63;;;22.43;57.66
22104;BME280;11218;48.886;9.426;2023-08-01T11:50:06;96801.28;;;22.61;59.04
22104;BME280;11218;48.886;9.426;2023-08-01T11:52:34;96807.22;;;22.63;57.62
22104;BME280;11218;48.886;9.426;2023-08-01T11:55:05;96818.81;;;22.56;58.46
22104;BME280;11218;48.886;9.426;2023-08-01T11:57:33;96816.28;;;22.48;58.72
22104;BME280;11218;48.886;9.426;2023-08-01T12:00:02;96823.00;;;22.50;58.00
22104;BME280;11218;48.886;9.426;2023-08-01T12:02:30;96814.06;;;22.38;57.43
22104;BME280;11218;48.886;9.426;2023-08-01T12:04:58;96816.78;;;22.53;57.01
22104;BME280;11218;48.886;9.426;2023-08-01T12:07:27;96818.38;;;22.54;56.67
22104;BME280;11218;48.886;9.426;2023-08-01T12:09:56;96825.34;;;22.68;55.49
22104;BME280;11218;48.886;9.426;2023-08-01T12:12:28;96814.59;;;22.78;53.33
22104;BME280;11218;48.886;9.426;2023-08-01T12:14:56;96819.47;;;22.85;53.20
22104;BME280;11218;48.886;9.426;2023-08-01T12:17:24;96826.06;;;23.00;54.23
22104;BME280;11218;48.886;9.426;2023-08-01T12:19:52;96825.75;;;23.05;53.14
22104;BME280;11218;48.886;9.426;2023-08-01T12:22:20;96823.53;;;22.91;53.17
22104;BME280;11218;48.886;9.426;2023-08-01T12:24:49;96819.56;;;22.88;54.24
22104;BME280;11218;48.886;9.426;2023-08-01T12:27:16;96815.56;;;22.86;53.28
22104;BME280;11218;48.886;9.426;2023-08-01T12:29:47;96832.94;;;22.74;53.74
22104;BME280;11218;48.886;9.426;2023-08-01T12:32:15;96828.84;;;23.03;55.13
22104;BME280;11218;48.886;9.426;2023-08-01T12:34:43;96831.31;;;23.27;52.88
22104;BME280;11218;48.886;9.426;2023-08-01T12:37:11;96826.75;;;23.35;50.68
22104;BME280;11218;48.886;9.426;2023-08-01T12:39:39;96822.00;;;23.32;50.92
22104;BME280;11218;48.886;9.426;2023-08-01T12:42:08;96825.03;;;23.27;52.29
22104;BME280;11218;48.886;9.426;2023-08-01T12:44:36;96823.22;;;23.54;52.38
22104;BME280;11218;48.886;9.426;2023-08-01T12:47:06;96814.81;;;23.66;51.48
22104;BME280;11218;48.886;9.426;2023-08-01T12:49:38;96835.56;;;23.86;51.88
22104;BME280;11218;48.886;9.426;2023-08-01T12:52:06;96827.19;;;24.02;49.51
22104;BME280;11218;48.886;9.426;2023-08-01T12:54:35;96836.78;;;24.12;49.52
22104;BME280;11218;48.886;9.426;2023-08-01T12:57:04;96823.09;;;24.15;48.37
22104;BME280;11218;48.886;9.426;2023-08-01T12:59:32;96822.81;;;23.98;49.87
22104;BME280;11218;48.886;9.426;2023-08-01T13:02:00;96828.31;;;23.75;50.13
22104;BME280;11218;48.886;9.426;2023-08-01T13:04:38;96828.34;;;23.55;51.28
22104;BME280;11218;48.886;9.426;2023-08-01T13:07:10;96819.38;;;23.58;52.06
22104;BME280;11218;48.886;9.426;2023-08-01T13:09:38;96831.97;;;23.82;50.86